MSC Gina — 3FLY9 — position and weather

sailwx.info

Track history (hours):
 
Tides and Currents Weather Stations Pressure Air Temp Water Temp Dewpoint Dewpoint Depression Visibility Wind Speed Wind Dir Waves Ship Positions

MSC Gina

Last reported at 2014-Sep-23 09:28 UTC. Time now 2014-Sep-23 10:26 UTC.
Position N 45°34' W 073°31'.

Length 259 m; draft 9.9 m.

Type: Ship (hazmat cat A). MMSI: 357542000.

Date/timePositionNaut miles runAvg speedWind from/ knotsBaromVisibWave heightAir tempDewpointWater temp
2014-Sep-23 09:28N 45°34' W 073°31'0 0.0
2014-Sep-23 08:31N 45°34' W 073°31'0 0.0
2014-Sep-23 07:31N 45°34' W 073°31'0 0.0
2014-Sep-23 06:31N 45°34' W 073°31'0 0.0
2014-Sep-23 05:31N 45°34' W 073°31'0 0.0
2014-Sep-23 04:31N 45°34' W 073°31'0 0.0
2014-Sep-23 03:31N 45°34' W 073°31'0 0.0
2014-Sep-23 02:31N 45°34' W 073°31'0 0.0
2014-Sep-23 01:31N 45°34' W 073°31'0 0.0
2014-Sep-23 00:31N 45°34' W 073°31'0 0.0
2014-Sep-22 23:31N 45°34' W 073°31'0 0.0
2014-Sep-22 22:31N 45°34' W 073°31'0 0.0
2014-Sep-22 21:31N 45°34' W 073°31'0 0.0
2014-Sep-22 20:31N 45°34' W 073°31'0 0.0
2014-Sep-22 19:31N 45°34' W 073°31'0 0.0
2014-Sep-22 18:31N 45°34' W 073°31'0 0.0
2014-Sep-22 17:31N 45°34' W 073°31'0 0.0
2014-Sep-22 16:31N 45°34' W 073°31'0 0.0
2014-Sep-22 15:31N 45°34' W 073°31'0 0.0
2014-Sep-22 14:31N 45°34' W 073°31'0 0.0
2014-Sep-22 13:31N 45°34' W 073°31'0 0.0
2014-Sep-22 12:31N 45°34' W 073°31'0 0.0
2014-Sep-22 11:31N 45°34' W 073°31'0 0.0
2014-Sep-22 10:31N 45°34' W 073°31'0 0.0
2014-Sep-22 09:31N 45°34' W 073°31'0 0.1
2014-Sep-22 08:33N 45°34' W 073°31'4 3.7
2014-Sep-22 07:33N 45°38' W 073°29'9 9.4
2014-Sep-22 06:33N 45°46' W 073°23'1010.1
2014-Sep-22 05:34N 45°54' W 073°14'10 9.5
2014-Sep-22 04:33N 46°03' W 073°09'9 9.2
2014-Sep-22 03:32N 46°08' W 072°57'1110.8
2014-Sep-22 02:33N 46°15' W 072°45'9 8.7
2014-Sep-22 01:33N 46°18' W 072°34'10 9.8
2014-Sep-22 00:33N 46°25' W 072°23'10 9.6
2014-Sep-21 23:33N 46°31' W 072°13'1211.7
2014-Sep-21 22:33N 46°37' W 071°58'1611.9
2014-Sep-21 21:15N 46°40' W 071°36'  
2014-Sep-13 20:33N 38°13' W 009°37'1818.0
2014-Sep-13 19:33N 38°03' W 009°18'1818.3
2014-Sep-13 18:33N 37°55' W 008°58'6 5.2
2014-Sep-13 17:30N 37°56' W 008°51'0 0.0
2014-Sep-13 16:33N 37°56' W 008°51'0 0.0
2014-Sep-13 15:33N 37°56' W 008°51'0 0.0
2014-Sep-13 14:33N 37°56' W 008°51'0 0.0
2014-Sep-13 13:33N 37°56' W 008°51'0 0.0
2014-Sep-13 12:33N 37°56' W 008°51'0 0.0
2014-Sep-13 11:33N 37°56' W 008°51'0 0.0
2014-Sep-13 10:33N 37°56' W 008°51'0 0.0
2014-Sep-13 09:33N 37°56' W 008°51'  
Track history (hours):
 
Tides and Currents Weather Stations Pressure Air Temp Water Temp Dewpoint Dewpoint Depression Visibility Wind Speed Wind Dir Waves Ship Positions

MSC Gina

Last reported at 2014-Sep-23 09:28 UTC. Time now 2014-Sep-23 10:26 UTC.
Position N 45°34' W 073°31'.

Length 259 m; draft 9.9 m.

Type: Ship (hazmat cat A). MMSI: 357542000.

Date/timePositionNaut miles runAvg speedWind from/ knotsBaromVisibWave heightAir tempDewpointWater temp
2014-Sep-23 09:28N 45°34' W 073°31'0 0.0
2014-Sep-23 08:31N 45°34' W 073°31'0 0.0
2014-Sep-23 07:31N 45°34' W 073°31'0 0.0
2014-Sep-23 06:31N 45°34' W 073°31'0 0.0
2014-Sep-23 05:31N 45°34' W 073°31'0 0.0
2014-Sep-23 04:31N 45°34' W 073°31'0 0.0
2014-Sep-23 03:31N 45°34' W 073°31'0 0.0
2014-Sep-23 02:31N 45°34' W 073°31'0 0.0
2014-Sep-23 01:31N 45°34' W 073°31'0 0.0
2014-Sep-23 00:31N 45°34' W 073°31'0 0.0
2014-Sep-22 23:31N 45°34' W 073°31'0 0.0
2014-Sep-22 22:31N 45°34' W 073°31'0 0.0
2014-Sep-22 21:31N 45°34' W 073°31'0 0.0
2014-Sep-22 20:31N 45°34' W 073°31'0 0.0
2014-Sep-22 19:31N 45°34' W 073°31'0 0.0
2014-Sep-22 18:31N 45°34' W 073°31'0 0.0
2014-Sep-22 17:31N 45°34' W 073°31'0 0.0
2014-Sep-22 16:31N 45°34' W 073°31'0 0.0
2014-Sep-22 15:31N 45°34' W 073°31'0 0.0
2014-Sep-22 14:31N 45°34' W 073°31'0 0.0
2014-Sep-22 13:31N 45°34' W 073°31'0 0.0
2014-Sep-22 12:31N 45°34' W 073°31'0 0.0
2014-Sep-22 11:31N 45°34' W 073°31'0 0.0
2014-Sep-22 10:31N 45°34' W 073°31'0 0.0
2014-Sep-22 09:31N 45°34' W 073°31'0 0.1
2014-Sep-22 08:33N 45°34' W 073°31'4 3.7
2014-Sep-22 07:33N 45°38' W 073°29'9 9.4
2014-Sep-22 06:33N 45°46' W 073°23'1010.1
2014-Sep-22 05:34N 45°54' W 073°14'10 9.5
2014-Sep-22 04:33N 46°03' W 073°09'9 9.2
2014-Sep-22 03:32N 46°08' W 072°57'1110.8
2014-Sep-22 02:33N 46°15' W 072°45'9 8.7
2014-Sep-22 01:33N 46°18' W 072°34'10 9.8
2014-Sep-22 00:33N 46°25' W 072°23'10 9.6
2014-Sep-21 23:33N 46°31' W 072°13'1211.7
2014-Sep-21 22:33N 46°37' W 071°58'1611.9
2014-Sep-21 21:15N 46°40' W 071°36'  
2014-Sep-13 20:33N 38°13' W 009°37'1818.0
2014-Sep-13 19:33N 38°03' W 009°18'1818.3
2014-Sep-13 18:33N 37°55' W 008°58'6 5.2
2014-Sep-13 17:30N 37°56' W 008°51'0 0.0
2014-Sep-13 16:33N 37°56' W 008°51'0 0.0
2014-Sep-13 15:33N 37°56' W 008°51'0 0.0
2014-Sep-13 14:33N 37°56' W 008°51'0 0.0
2014-Sep-13 13:33N 37°56' W 008°51'0 0.0
2014-Sep-13 12:33N 37°56' W 008°51'0 0.0
2014-Sep-13 11:33N 37°56' W 008°51'0 0.0
2014-Sep-13 10:33N 37°56' W 008°51'0 0.0
2014-Sep-13 09:33N 37°56' W 008°51'  

Dump ship's entire track history